Cordero, Nevada
Current Conditions -  °F | °C
As of 12:56 PM on Thursday 20 Nov 2014 (Local Time) from KWMC Reporting Station
Few Clouds Few Clouds  
Wind Chill: 50°   Ceiling: Unl
Heat Index: 50°   Visibility: 10mi
Dew Point: 30°   Wind: 3mph
Humidity: 46%   Direction: 200°SSW
Pressure: 30.02"   Gusts: NA
Location:  41.9814°N, 117.672°W
Report Text: KWMC 202056Z AUTO 20003KT 10SM FEW110 10/M01 A3002 RMK AO2 SLP157 T01001011 58020
Loading
Personal Weather Stations






























Interactive Weather Map New forecast layout! Learn more

10-Day Weather Forecast

Advertisements
Track Severe Weather on mobile